Time;durP1;ratioP1;P1;durP2;ratioP2;P2;SDS_P1;SDS_P2;PMS_P1;PMS_P2;Temp;Humidity;BMP_temperature;BMP_pressure;BME280_temperature;BME280_humidity;BME280_pressure;Samples;Min_cycle;Max_cycle;Signal;HPM_P1;HPM_P2
2022/01/08 00:03:40;;;;;;;5.15;2.25;;;;;;;1.82;66.92;99303.25;10467001;28;20062;-71
2022/01/08 00:08:42;;;;;;;3.53;1.67;;;;;;;1.76;66.80;99302.63;10467440;28;20059;-70
2022/01/08 00:13:44;;;;;;;3.45;1.77;;;;;;;1.60;66.79;99286.00;10467314;28;20139;-70
2022/01/08 00:18:46;;;;;;;2.22;1.45;;;;;;;1.56;67.35;99290.41;10467015;28;20122;-69
2022/01/08 00:23:47;;;;;;;4.28;1.98;;;;;;;1.53;67.36;99287.94;10447071;28;20055;-69
2022/01/08 00:28:49;;;;;;;6.88;3.88;;;;;;;1.37;67.54;99286.75;10466574;28;20048;-69
2022/01/08 00:33:52;;;;;;;3.90;2.50;;;;;;;1.33;67.96;99283.44;10465031;28;20056;-70
2022/01/08 00:38:55;;;;;;;3.83;2.75;;;;;;;1.40;67.79;99275.50;10467495;28;20133;-69
2022/01/08 00:43:57;;;;;;;5.07;3.20;;;;;;;1.44;67.84;99284.81;10467252;28;20048;-69
2022/01/08 00:48:59;;;;;;;5.32;3.20;;;;;;;1.35;67.82;99286.81;10467719;28;20144;-69
2022/01/08 00:54:01;;;;;;;4.20;2.75;;;;;;;1.38;67.86;99284.13;10466189;28;20560;-69
2022/01/08 00:59:04;;;;;;;2.22;1.40;;;;;;;1.44;67.90;99289.97;10464599;28;20497;-70
2022/01/08 01:04:06;;;;;;;3.50;2.38;;;;;;;1.44;67.74;99280.53;10466235;28;20472;-69
2022/01/08 01:09:08;;;;;;;3.95;2.08;;;;;;;1.35;67.92;99280.81;10466869;28;20060;-69
2022/01/08 01:14:10;;;;;;;2.65;1.77;;;;;;;1.33;68.19;99275.72;10448717;28;20646;-69
2022/01/08 01:19:11;;;;;;;3.70;1.90;;;;;;;1.27;68.23;99272.50;10466511;28;20795;-69
2022/01/08 01:24:18;;;;;;;3.70;2.08;;;;;;;1.28;68.33;99275.00;10448225;28;20062;-69
2022/01/08 01:50:30;;;;;;;5.32;1.95;;;;;;;1.67;67.79;99262.53;10472818;28;20419;-69
2022/01/08 01:55:33;;;;;;;3.42;2.40;;;;;;;1.76;67.73;99251.91;10454874;28;20053;-69
2022/01/08 02:00:37;;;;;;;21.83;3.47;;;;;;;1.84;67.65;99257.63;10471836;28;20601;-69
2022/01/08 02:05:39;;;;;;;40.55;3.60;;;;;;;1.91;67.28;99256.50;10472143;28;20056;-69
2022/01/08 02:10:42;;;;;;;118.20;5.88;;;;;;;1.90;67.31;99246.25;10472195;28;20118;-68
2022/01/08 02:15:49;;;;;;;110.82;6.82;;;;;;;1.95;67.15;99252.09;10472214;28;20140;-69
2022/01/08 02:20:52;;;;;;;38.83;4.60;;;;;;;1.93;66.95;99259.06;10471519;28;20070;-68
2022/01/08 02:26:05;;;;;;;5.43;3.70;;;;;;;1.82;67.32;99264.59;10471041;28;20193;-69
2022/01/08 02:31:18;;;;;;;4.63;3.05;;;;;;;1.79;67.24;99272.41;10471806;28;20048;-69
2022/01/08 02:36:20;;;;;;;6.32;3.38;;;;;;;1.77;67.42;99270.78;10466629;28;20056;-69
2022/01/08 02:41:22;;;;;;;8.07;3.50;;;;;;;1.78;67.42;99275.06;10468977;28;20113;-69
2022/01/08 02:46:24;;;;;;;5.10;2.88;;;;;;;1.83;67.34;99262.81;10469178;28;20459;-68
2022/01/08 02:51:26;;;;;;;7.47;3.42;;;;;;;1.89;67.30;99263.47;10468722;28;20143;-69
2022/01/08 02:56:28;;;;;;;21.27;3.40;;;;;;;1.92;67.14;99265.09;10468992;28;20938;-69
2022/01/08 03:01:29;;;;;;;62.78;5.55;;;;;;;1.95;67.03;99254.69;10468712;28;20049;-68
2022/01/08 03:06:32;;;;;;;46.25;5.70;;;;;;;1.94;67.08;99260.72;10450848;28;20334;-69
2022/01/08 03:11:34;;;;;;;122.82;7.03;;;;;;;1.94;67.01;99246.09;10468462;28;20053;-68
2022/01/08 03:16:36;;;;;;;21.02;5.43;;;;;;;1.92;67.06;99236.72;10447839;28;20056;-68
2022/01/08 03:21:44;;;;;;;13.68;7.30;;;;;;;1.87;67.04;99233.50;10468802;28;20053;-68
2022/01/08 03:26:46;;;;;;;9.75;6.85;;;;;;;1.59;67.27;99243.91;10474728;28;20087;-68
2022/01/08 03:31:47;;;;;;;11.02;7.38;;;;;;;1.51;67.65;99250.22;10476205;28;20059;-68
2022/01/08 03:36:49;;;;;;;7.88;5.68;;;;;;;1.52;67.95;99257.06;10474643;28;20051;-68
2022/01/08 03:41:52;;;;;;;23.10;6.10;;;;;;;1.55;67.80;99273.25;10470815;28;20143;-68
2022/01/08 03:47:00;;;;;;;23.80;6.35;;;;;;;1.50;67.72;99279.47;10474688;28;20049;-68
2022/01/08 03:52:03;;;;;;;11.32;6.18;;;;;;;1.46;67.72;99289.03;10456610;28;20052;-68
2022/01/08 03:57:05;;;;;;;21.73;7.13;;;;;;;1.38;68.05;99286.69;10455532;28;20135;-68
2022/01/08 04:02:07;;;;;;;5.72;4.00;;;;;;;1.51;68.03;99279.41;10455844;28;20052;-67
2022/01/08 04:07:08;;;;;;;6.35;3.92;;;;;;;1.52;67.99;99286.25;10468967;28;20063;-68
2022/01/08 04:12:15;;;;;;;7.90;4.38;;;;;;;1.53;67.85;99299.97;10466840;28;20059;-68
2022/01/08 04:17:17;;;;;;;6.22;4.00;;;;;;;1.52;67.74;99318.91;10468298;28;20595;-68
2022/01/08 04:22:19;;;;;;;4.55;2.70;;;;;;;1.38;67.84;99343.38;10466691;28;20146;-68
2022/01/08 04:27:20;;;;;;;6.97;3.60;;;;;;;1.24;68.38;99349.84;10466054;28;20054;-68
2022/01/08 04:32:22;;;;;;;5.00;3.75;;;;;;;1.37;68.39;99361.47;10467773;28;20093;-68
2022/01/08 04:37:24;;;;;;;5.90;3.63;;;;;;;1.53;68.39;99372.97;10467684;28;20800;-68
2022/01/08 04:42:26;;;;;;;7.57;3.75;;;;;;;1.62;68.32;99380.41;10467478;28;20143;-68
2022/01/08 04:47:28;;;;;;;8.38;4.95;;;;;;;1.51;68.53;99373.91;10446304;28;20052;-68
2022/01/08 04:52:30;;;;;;;7.88;4.80;;;;;;;1.58;68.46;99385.72;10448516;28;21059;-67
2022/01/08 04:57:32;;;;;;;9.73;5.68;;;;;;;1.60;68.31;99401.97;10466788;28;20060;-68
2022/01/08 05:02:33;;;;;;;11.65;5.93;;;;;;;1.65;68.41;99408.66;10466055;28;20440;-67
2022/01/08 05:07:36;;;;;;;11.23;6.60;;;;;;;1.71;68.13;99410.19;10468546;28;20052;-68
2022/01/08 05:12:38;;;;;;;15.35;6.45;;;;;;;1.73;68.18;99405.81;10475409;28;20072;-68
2022/01/08 05:17:42;;;;;;;14.13;6.78;;;;;;;1.73;68.16;99414.41;10457755;28;20139;-68
2022/01/08 05:27:49;;;;;;;10.32;7.25;;;;;;;1.75;68.09;99427.22;10474726;28;20091;-68
2022/01/08 05:32:52;;;;;;;12.23;7.72;;;;;;;1.83;67.89;99423.53;10475107;28;20049;-67
2022/01/08 05:37:55;;;;;;;16.15;9.40;;;;;;;1.80;67.77;99446.84;10456322;28;20441;-68
2022/01/08 05:42:56;;;;;;;13.63;8.55;;;;;;;1.85;67.72;99446.66;10474097;28;20060;-68
2022/01/08 05:47:58;;;;;;;13.07;9.15;;;;;;;1.89;67.75;99449.09;10456204;28;20052;-68
2022/01/08 05:53:00;;;;;;;18.02;9.93;;;;;;;1.81;67.53;99455.38;10455640;28;20557;-68
2022/01/08 05:58:02;;;;;;;16.02;10.63;;;;;;;1.76;67.56;99458.13;10439216;28;20139;-68
2022/01/08 06:03:03;;;;;;;15.95;9.98;;;;;;;1.69;67.81;99469.53;10455546;28;20061;-68
2022/01/08 06:08:05;;;;;;;17.08;10.48;;;;;;;1.75;67.81;99476.22;10473589;28;20462;-68
2022/01/08 06:13:07;;;;;;;16.08;10.45;;;;;;;1.81;67.80;99487.19;10455602;28;20059;-67
2022/01/08 06:18:09;;;;;;;18.40;10.45;;;;;;;1.83;67.78;99484.53;10454735;28;20408;-68
2022/01/08 06:23:11;;;;;;;15.02;9.00;;;;;;;1.89;67.56;99494.69;10471963;28;20143;-67
2022/01/08 06:28:13;;;;;;;21.55;10.23;;;;;;;1.84;67.41;99496.56;10472609;28;20044;-68
2022/01/08 06:33:15;;;;;;;22.58;12.30;;;;;;;2.00;67.28;99506.34;10472186;28;20126;-68
2022/01/08 06:38:20;;;;;;;22.63;13.70;;;;;;;2.11;66.88;99501.66;10471855;28;20083;-68
2022/01/08 06:43:22;;;;;;;19.13;12.07;;;;;;;2.05;67.00;99511.38;10471949;28;20423;-67
2022/01/08 06:48:23;;;;;;;23.08;13.77;;;;;;;2.05;67.08;99507.03;10453638;28;20606;-68
2022/01/08 06:53:25;;;;;;;27.63;15.20;;;;;;;2.05;66.86;99525.06;10470783;28;20405;-68
2022/01/08 06:58:27;;;;;;;22.05;14.15;;;;;;;1.99;67.09;99519.28;10471011;28;20044;-67
2022/01/08 07:03:29;;;;;;;28.77;15.80;;;;;;;1.94;67.14;99527.16;10470995;28;20171;-69
2022/01/08 07:08:31;;;;;;;24.23;14.80;;;;;;;2.00;67.14;99536.44;10470571;28;20052;-67
2022/01/08 07:13:32;;;;;;;20.67;12.93;;;;;;;1.91;67.13;99541.91;10452866;28;20053;-67
2022/01/08 07:18:34;;;;;;;21.05;12.07;;;;;;;1.96;67.17;99558.06;10470985;28;20052;-68
2022/01/08 07:23:36;;;;;;;14.65;10.40;;;;;;;2.04;67.12;99566.41;10452194;28;20074;-67
2022/01/08 07:28:39;;;;;;;30.80;14.90;;;;;;;2.04;66.59;99579.28;10469642;28;20142;-67
2022/01/08 07:33:41;;;;;;;20.15;10.73;;;;;;;1.88;66.91;99590.97;10469101;28;20327;-68
2022/01/08 07:38:43;;;;;;;21.92;11.20;;;;;;;1.74;67.43;99601.72;10469761;28;20048;-67
2022/01/08 07:43:45;;;;;;;20.50;11.18;;;;;;;1.75;67.56;99610.25;10451882;28;20067;-68
2022/01/08 07:48:47;;;;;;;21.75;11.63;;;;;;;1.78;67.46;99621.34;10468879;28;20110;-67
2022/01/08 07:53:49;;;;;;;23.40;12.85;;;;;;;1.73;67.76;99617.19;10469626;28;20067;-67
2022/01/08 07:58:50;;;;;;;18.50;10.75;;;;;;;1.77;67.75;99629.09;10468499;28;20052;-69
2022/01/08 08:03:56;;;;;;;17.77;9.25;;;;;;;1.82;67.53;99620.38;10466045;28;20675;-67
2022/01/08 08:08:58;;;;;;;15.85;9.25;;;;;;;1.82;67.49;99625.53;10468495;28;20049;-70
2022/01/08 08:13:59;;;;;;;24.05;9.85;;;;;;;1.89;67.30;99634.75;10450694;28;20059;-70
2022/01/08 08:19:03;;;;;;;25.25;11.48;;;;;;;2.03;66.92;99642.09;10468035;28;20048;-67
2022/01/08 08:24:06;;;;;;;20.30;9.18;;;;;;;1.98;67.03;99643.97;10451128;28;20068;-70
2022/01/08 08:29:08;;;;;;;16.80;7.70;;;;;;;2.08;66.93;99635.06;10467977;28;20087;-70
2022/01/08 08:34:09;;;;;;;11.93;6.82;;;;;;;2.34;66.12;99640.25;10468542;28;20131;-69
2022/01/08 08:39:11;;;;;;;16.52;7.78;;;;;;;2.55;65.71;99649.06;10468285;28;20060;-69
2022/01/08 08:44:13;;;;;;;15.82;6.60;;;;;;;2.74;65.31;99640.69;10475576;28;20102;-69
2022/01/08 08:49:15;;;;;;;15.98;6.40;;;;;;;2.71;65.27;99640.78;10481758;28;20145;-70
2022/01/08 08:54:17;;;;;;;13.80;6.32;;;;;;;2.43;64.98;99631.38;10481993;28;20048;-68
2022/01/08 08:59:18;;;;;;;13.25;5.70;;;;;;;2.38;65.35;99628.94;10463382;28;20059;-69
2022/01/08 09:04:22;;;;;;;12.98;6.13;;;;;;;2.38;65.12;99639.28;10463096;28;20736;-69
2022/01/08 09:09:24;;;;;;;13.52;5.47;;;;;;;2.47;65.15;99638.16;10481213;28;20835;-69
2022/01/08 09:14:26;;;;;;;14.23;5.03;;;;;;;2.65;64.53;99641.00;10481055;28;20157;-69
2022/01/08 09:19:29;;;;;;;13.75;4.80;;;;;;;3.01;63.62;99628.59;10480969;28;20052;-70
2022/01/08 09:24:32;;;;;;;9.15;4.95;;;;;;;3.05;63.44;99627.59;10481152;28;20056;-69
2022/01/08 09:29:34;;;;;;;11.82;5.40;;;;;;;2.66;64.00;99637.50;10480680;28;20059;-70
2022/01/08 09:34:36;;;;;;;13.88;5.50;;;;;;;2.05;64.90;99637.75;10481149;28;20080;-69
2022/01/08 09:39:40;;;;;;;13.20;5.95;;;;;;;1.97;65.01;99635.38;10463004;28;20590;-69
2022/01/08 09:44:44;;;;;;;12.40;5.82;;;;;;;1.89;65.15;99633.94;10480391;28;20428;-69
2022/01/08 09:49:46;;;;;;;11.75;5.60;;;;;;;1.78;65.59;99635.97;10462546;28;20064;-69
2022/01/08 09:54:48;;;;;;;13.07;5.63;;;;;;;1.81;65.50;99631.56;10476951;28;20049;-69
2022/01/08 09:59:51;;;;;;;10.65;4.85;;;;;;;1.77;65.71;99631.69;10473476;28;20127;-69
2022/01/08 10:04:52;;;;;;;14.27;5.15;;;;;;;1.72;65.71;99629.25;10473248;28;20052;-69
2022/01/08 10:10:16;;;;;;;12.70;5.53;;;;;;;1.63;65.54;99637.25;10472896;28;20496;-69
2022/01/08 10:20:50;;;;;;;11.65;4.75;;;;;;;1.84;65.68;99630.63;10472661;28;20140;-69
2022/01/08 10:26:08;;;;;;;13.07;5.05;;;;;;;1.88;65.29;99622.75;10472913;28;20057;-69
2022/01/08 10:31:17;;;;;;;14.38;5.50;;;;;;;2.04;65.40;99618.84;10472264;28;21169;-69
2022/01/08 10:36:25;;;;;;;10.35;5.55;;;;;;;2.00;64.75;99614.66;10453912;28;20435;-69
2022/01/08 10:41:28;;;;;;;15.18;5.43;;;;;;;2.00;65.21;99618.97;10472226;28;20063;-69
2022/01/08 10:46:30;;;;;;;13.75;5.50;;;;;;;2.06;65.34;99611.91;10453958;28;20393;-70
2022/01/08 10:51:39;;;;;;;12.43;5.55;;;;;;;2.35;64.62;99608.41;10471764;28;20833;-65
2022/01/08 10:56:46;;;;;;;14.82;5.68;;;;;;;2.71;64.16;99606.38;10451299;28;20681;-65
2022/01/08 11:01:50;;;;;;;18.95;5.22;;;;;;;2.67;63.92;99602.19;10468687;28;20047;-65
2022/01/08 11:06:55;;;;;;;10.27;4.90;;;;;;;2.65;63.82;99586.78;10465530;28;20044;-65
2022/01/08 11:11:59;;;;;;;13.82;5.13;;;;;;;2.69;63.63;99583.19;10468947;28;20072;-65
2022/01/08 11:17:01;;;;;;;11.95;4.93;;;;;;;2.80;63.49;99575.94;10468211;28;20060;-65
2022/01/08 11:22:07;;;;;;;13.27;5.18;;;;;;;2.94;63.20;99572.88;10465987;28;20068;-65
2022/01/08 11:27:10;;;;;;;13.10;4.88;;;;;;;3.24;62.61;99551.13;10447204;28;20151;-65
2022/01/08 11:32:15;;;;;;;11.43;4.80;;;;;;;3.79;61.93;99550.75;10463256;28;20071;-65
2022/01/08 11:37:18;;;;;;;10.23;4.50;;;;;;;4.14;60.97;99553.75;10465851;28;20056;-65
2022/01/08 11:42:21;;;;;;;11.55;4.47;;;;;;;4.16;60.51;99536.41;10469046;28;20055;-65
2022/01/08 11:47:24;;;;;;;11.35;4.78;;;;;;;4.22;60.69;99523.22;10462059;28;20457;-65
2022/01/08 11:52:26;;;;;;;11.38;4.47;;;;;;;4.50;59.91;99511.69;10467467;28;20079;-65
2022/01/08 11:57:30;;;;;;;9.30;4.13;;;;;;;4.54;59.41;99494.25;10465135;28;20050;-64
2022/01/08 12:02:39;;;;;;;11.35;4.30;;;;;;;4.26;58.07;99492.00;10467012;28;20063;-65
2022/01/08 12:07:48;;;;;;;7.13;3.67;;;;;;;3.66;60.44;99482.28;10464337;28;20045;-65
2022/01/08 12:13:00;;;;;;;13.13;3.90;;;;;;;3.40;60.92;99463.50;10466985;28;20520;-64
2022/01/08 12:18:02;;;;;;;10.75;4.07;;;;;;;3.20;61.10;99458.25;10464856;28;20052;-65
2022/01/08 12:23:27;;;;;;;10.60;4.40;;;;;;;2.87;61.37;99442.25;10443952;28;20053;-65
2022/01/08 12:29:03;;;;;;;11.38;3.88;;;;;;;2.88;61.46;99434.47;10453532;28;20105;-65
2022/01/08 12:34:27;;;;;;;12.35;3.75;;;;;;;2.87;61.60;99425.03;10456619;28;20508;-64
2022/01/08 12:39:48;;;;;;;8.20;3.90;;;;;;;3.11;61.76;99404.38;10462914;28;20174;-64
2022/01/08 12:45:10;;;;;;;11.20;3.90;;;;;;;3.09;61.73;99396.66;10463508;28;20067;-64
2022/01/08 12:50:19;;;;;;;;;;;;;;;2.76;62.03;99387.59;10465534;28;20151;-65
2022/01/08 12:55:21;;;;;;;6.70;3.20;;;;;;;2.92;62.13;99376.66;10463977;28;20035;-64
2022/01/08 13:00:25;;;;;;;8.18;3.30;;;;;;;2.93;61.71;99374.88;10464250;28;20393;-64
2022/01/08 13:05:26;;;;;;;7.38;3.80;;;;;;;3.16;61.31;99363.69;10464832;28;20064;-65
2022/01/08 13:10:32;;;;;;;10.00;4.32;;;;;;;3.41;60.91;99338.56;10459782;28;20052;-64
2022/01/08 13:15:34;;;;;;;9.07;4.90;;;;;;;3.66;60.86;99344.44;10465393;28;20127;-65
2022/01/08 13:20:36;;;;;;;9.25;4.70;;;;;;;3.64;60.74;99347.06;10465079;28;20056;-65
2022/01/08 13:25:37;;;;;;;6.22;3.33;;;;;;;3.77;60.49;99344.81;10465244;28;20147;-65
2022/01/08 13:30:47;;;;;;;6.28;3.22;;;;;;;3.63;59.98;99331.63;10465874;28;20049;-65
2022/01/08 13:36:12;;;;;;;7.95;3.50;;;;;;;3.24;60.98;99320.28;10470355;28;20434;-65
2022/01/08 13:41:17;;;;;;;6.68;2.78;;;;;;;3.03;61.71;99303.88;10470856;28;20053;-65
2022/01/08 13:46:18;;;;;;;7.28;2.90;;;;;;;3.04;61.78;99296.09;10472586;28;20159;-65
2022/01/08 13:51:23;;;;;;;5.90;2.83;;;;;;;2.76;62.17;99279.16;10472663;28;20049;-65
2022/01/08 13:56:27;;;;;;;5.50;2.25;;;;;;;2.74;62.26;99266.31;10471669;28;20060;-65
2022/01/08 14:01:43;;;;;;;6.35;2.45;;;;;;;2.74;62.17;99250.81;10470751;28;20451;-64
2022/01/08 14:06:45;;;;;;;7.75;3.22;;;;;;;2.83;62.35;99239.28;10472156;28;20049;-65
2022/01/08 14:11:46;;;;;;;4.82;2.75;;;;;;;2.92;62.42;99228.59;10468214;28;20622;-64
2022/01/08 14:16:48;;;;;;;7.97;5.40;;;;;;;3.04;62.55;99212.59;10467987;28;20558;-65
2022/01/08 14:22:04;;;;;;;5.97;2.83;;;;;;;3.14;61.69;99193.22;10468504;28;20053;-65
2022/01/08 14:27:12;;;;;;;6.13;2.90;;;;;;;3.21;62.17;99180.91;10469244;28;20930;-65
2022/01/08 14:32:19;;;;;;;6.32;2.33;;;;;;;3.07;62.08;99171.13;10468108;28;20056;-65
2022/01/08 14:37:33;;;;;;;7.63;2.70;;;;;;;3.01;62.29;99156.72;10469022;28;20056;-65
2022/01/08 14:42:35;;;;;;;5.82;2.45;;;;;;;3.03;62.36;99149.75;10468592;28;20063;-65
2022/01/08 14:47:44;;;;;;;8.43;2.53;;;;;;;3.07;62.31;99146.13;10463811;28;20527;-65
2022/01/08 14:52:49;;;;;;;7.05;2.25;;;;;;;2.94;62.50;99137.25;10443419;28;20052;-65
2022/01/08 14:57:50;;;;;;;8.90;2.70;;;;;;;2.73;62.65;99135.53;10465953;28;20088;-65
2022/01/08 15:02:52;;;;;;;6.15;2.80;;;;;;;2.67;63.37;99132.34;10462964;28;21086;-64
2022/01/08 15:07:55;;;;;;;7.15;2.60;;;;;;;2.57;63.49;99123.31;10462964;28;20075;-64
2022/01/08 15:12:57;;;;;;;7.85;3.78;;;;;;;2.52;63.99;99100.25;10461464;28;20141;-64
2022/01/08 15:18:02;;;;;;;8.60;3.28;;;;;;;2.47;64.27;99072.97;10457561;28;20044;-64
2022/01/08 15:23:06;;;;;;;9.25;3.50;;;;;;;2.24;64.88;99066.13;10465017;28;20102;-64
2022/01/08 15:28:07;;;;;;;6.80;3.92;;;;;;;2.21;65.32;99054.19;10466770;28;20139;-65
2022/01/08 15:33:09;;;;;;;6.22;2.97;;;;;;;2.28;65.10;99039.31;10465439;28;20059;-64
2022/01/08 15:38:12;;;;;;;7.93;3.55;;;;;;;2.04;65.45;99015.34;10461625;28;20052;-63
2022/01/08 15:43:14;;;;;;;8.25;4.28;;;;;;;2.01;65.85;99012.06;10464744;28;20436;-63
2022/01/08 15:48:15;;;;;;;10.30;4.05;;;;;;;1.99;65.80;98995.81;10465286;28;20064;-63
2022/01/08 15:53:17;;;;;;;11.55;5.35;;;;;;;1.97;65.86;98992.47;10462080;28;20058;-63
2022/01/08 15:58:19;;;;;;;10.10;5.35;;;;;;;2.02;65.96;98975.06;10463636;28;20059;-63
2022/01/08 16:03:21;;;;;;;11.82;5.65;;;;;;;1.85;66.31;98967.97;10447471;28;20540;-63
2022/01/08 16:08:25;;;;;;;9.30;5.22;;;;;;;1.91;66.67;98957.44;10464521;28;20134;-63
2022/01/08 16:13:26;;;;;;;11.73;6.10;;;;;;;1.89;66.73;98940.38;10463294;28;20048;-64
2022/01/08 16:18:30;;;;;;;10.23;5.18;;;;;;;1.82;66.86;98924.31;10465415;28;20355;-63
2022/01/08 16:23:32;;;;;;;9.48;4.32;;;;;;;1.78;66.87;98919.31;10465824;28;20063;-64
2022/01/08 16:28:34;;;;;;;8.85;5.30;;;;;;;1.69;67.08;98905.06;10465802;28;20522;-64
2022/01/08 16:33:36;;;;;;;11.82;6.28;;;;;;;1.71;66.97;98897.25;10464805;28;20550;-64
2022/01/08 16:38:40;;;;;;;9.68;5.35;;;;;;;1.73;67.21;98874.84;10465423;28;20060;-64
2022/01/08 16:43:42;;;;;;;9.40;5.55;;;;;;;1.55;67.53;98863.56;10465355;28;20052;-64
2022/01/08 16:48:45;;;;;;;13.05;6.70;;;;;;;1.50;68.11;98851.75;10465412;28;20048;-64
2022/01/08 16:53:48;;;;;;;8.50;5.38;;;;;;;1.41;68.45;98829.78;10463780;28;20056;-64
2022/01/08 16:58:51;;;;;;;10.25;5.55;;;;;;;1.48;68.41;98815.75;10446571;28;20684;-64
2022/01/08 17:03:53;;;;;;;12.57;6.03;;;;;;;1.52;68.44;98801.00;10467111;28;20056;-63
2022/01/08 17:08:55;;;;;;;5.80;3.80;;;;;;;1.61;68.31;98774.84;10471641;28;20040;-64
2022/01/08 17:13:57;;;;;;;5.78;2.97;;;;;;;1.67;68.12;98754.81;10470614;28;20053;-64
2022/01/08 17:18:58;;;;;;;6.80;3.67;;;;;;;1.72;68.00;98745.16;10452339;28;20045;-64
2022/01/08 17:24:00;;;;;;;7.80;4.57;;;;;;;1.73;68.14;98730.50;10468826;28;20048;-64
2022/01/08 17:29:03;;;;;;;5.53;3.50;;;;;;;1.79;67.83;98707.03;10469592;28;20128;-64
2022/01/08 17:34:06;;;;;;;5.95;3.60;;;;;;;1.86;67.74;98680.09;10471220;28;20060;-64
2022/01/08 17:39:08;;;;;;;8.60;4.35;;;;;;;1.88;67.79;98674.00;10471216;28;20057;-64
2022/01/08 17:44:11;;;;;;;6.85;3.58;;;;;;;1.95;67.99;98659.09;10469053;28;20344;-64
2022/01/08 17:49:13;;;;;;;6.50;3.60;;;;;;;2.00;67.65;98650.22;10469759;28;20141;-64
2022/01/08 17:54:16;;;;;;;9.02;4.40;;;;;;;2.05;67.65;98629.41;10470884;28;20122;-64
2022/01/08 17:59:18;;;;;;;6.20;3.25;;;;;;;2.14;67.56;98616.06;10469701;28;21075;-64
2022/01/08 18:04:20;;;;;;;5.47;1.98;;;;;;;2.15;67.36;98595.34;10452524;28;20053;-64
2022/01/08 18:09:22;;;;;;;3.55;2.30;;;;;;;2.30;67.06;98577.50;10470403;28;20052;-64
2022/01/08 18:14:24;;;;;;;3.97;1.85;;;;;;;2.31;66.98;98574.00;10467939;28;20587;-64
2022/01/08 18:19:26;;;;;;;3.78;1.85;;;;;;;2.35;66.80;98558.31;10468030;28;20062;-64
2022/01/08 18:24:29;;;;;;;3.28;1.70;;;;;;;2.49;66.70;98547.31;10469564;28;20084;-64
2022/01/08 18:29:31;;;;;;;3.30;1.52;;;;;;;2.53;66.41;98534.19;10469239;28;20398;-64
2022/01/08 18:34:34;;;;;;;2.85;1.67;;;;;;;2.59;66.20;98520.13;10469046;28;20059;-64
2022/01/08 18:39:36;;;;;;;3.00;1.70;;;;;;;2.59;66.25;98508.06;10468903;28;20398;-65
2022/01/08 18:44:39;;;;;;;2.88;1.50;;;;;;;2.54;66.29;98493.75;10468650;28;20064;-64
2022/01/08 18:49:42;;;;;;;3.42;1.50;;;;;;;2.57;66.13;98484.09;10468645;28;20049;-65
2022/01/08 18:54:45;;;;;;;3.50;2.00;;;;;;;2.52;66.33;98462.03;10469213;28;20250;-64
2022/01/08 18:59:47;;;;;;;3.42;1.85;;;;;;;2.57;66.27;98447.97;10459781;28;20044;-64
2022/01/08 19:04:49;;;;;;;4.53;1.73;;;;;;;2.56;66.33;98440.31;10467209;28;20472;-64
2022/01/08 19:09:50;;;;;;;3.05;1.95;;;;;;;2.52;66.38;98418.97;10464403;28;20139;-64
2022/01/08 19:14:52;;;;;;;4.97;2.20;;;;;;;2.65;66.34;98401.09;10466660;28;20044;-64
2022/01/08 19:19:55;;;;;;;5.13;1.80;;;;;;;2.66;66.25;98380.38;10464425;28;20067;-64
2022/01/08 19:24:57;;;;;;;3.30;1.60;;;;;;;2.71;66.12;98356.91;10467065;28;20111;-64
2022/01/08 19:29:59;;;;;;;3.70;2.00;;;;;;;2.64;66.46;98335.75;10466769;28;20688;-64
2022/01/08 19:35:03;;;;;;;4.78;3.63;;;;;;;2.70;66.42;98319.94;10467628;28;20058;-66
2022/01/08 19:40:06;;;;;;;4.00;2.15;;;;;;;2.67;66.49;98298.63;10469569;28;20059;-66
2022/01/08 19:45:08;;;;;;;2.88;1.88;;;;;;;2.72;66.49;98282.00;10469199;28;20067;-66
2022/01/08 19:50:11;;;;;;;3.20;1.90;;;;;;;2.65;66.72;98280.66;10469310;28;20063;-66
2022/01/08 19:55:14;;;;;;;3.67;1.83;;;;;;;2.56;66.84;98259.69;10451967;28;20143;-66
2022/01/08 20:00:16;;;;;;;2.97;1.80;;;;;;;2.55;66.75;98233.03;10450756;28;20148;-66
2022/01/08 20:05:18;;;;;;;4.43;2.00;;;;;;;2.55;66.94;98217.53;10467693;28;20067;-66
2022/01/08 20:10:20;;;;;;;4.35;2.10;;;;;;;2.67;66.96;98203.97;10468631;28;20053;-66
2022/01/08 20:15:21;;;;;;;3.33;1.90;;;;;;;2.68;66.73;98192.72;10466919;28;20060;-65
2022/01/08 20:20:23;;;;;;;3.42;2.10;;;;;;;2.66;66.78;98171.31;10467359;28;20048;-66
2022/01/08 20:25:25;;;;;;;3.60;2.00;;;;;;;2.66;66.99;98165.34;10467912;28;20069;-66
2022/01/08 20:30:28;;;;;;;4.07;2.17;;;;;;;2.64;67.34;98143.97;10468366;28;20075;-66
2022/01/08 20:35:29;;;;;;;3.60;2.40;;;;;;;2.70;67.10;98131.50;10467631;28;20573;-65
2022/01/08 20:40:33;;;;;;;4.07;2.13;;;;;;;2.76;66.95;98114.88;10467728;28;20052;-65
2022/01/08 20:45:38;;;;;;;4.75;2.75;;;;;;;2.74;66.96;98089.16;10467856;28;20137;-65
2022/01/08 20:50:40;;;;;;;3.50;2.30;;;;;;;2.67;67.18;98067.19;10467274;28;20056;-66
2022/01/08 20:55:43;;;;;;;5.00;2.83;;;;;;;2.70;67.17;98043.75;10467118;28;20058;-66
2022/01/08 21:00:46;;;;;;;4.05;2.50;;;;;;;2.70;67.38;98030.06;10467119;28;20084;-66
2022/01/08 21:05:49;;;;;;;5.20;2.50;;;;;;;2.69;67.22;98003.41;10466379;28;20062;-66
2022/01/08 21:10:52;;;;;;;4.70;2.75;;;;;;;2.69;66.99;97987.09;10466988;28;20133;-66
2022/01/08 21:15:55;;;;;;;4.30;2.47;;;;;;;2.69;67.03;97966.44;10466555;28;20045;-68
2022/01/08 21:20:59;;;;;;;6.25;3.95;;;;;;;2.53;67.14;97945.88;10466150;28;20808;-65
2022/01/08 21:26:01;;;;;;;5.45;3.38;;;;;;;2.34;67.62;97934.97;10448603;28;20404;-65
2022/01/08 21:31:03;;;;;;;5.43;3.92;;;;;;;2.21;68.07;97914.22;10466623;28;20148;-66
2022/01/08 21:36:06;;;;;;;4.30;2.40;;;;;;;2.11;68.44;97907.13;10464132;28;20063;-66
2022/01/08 21:41:08;;;;;;;4.40;2.35;;;;;;;2.17;68.39;97886.13;10466202;28;20057;-65
2022/01/08 21:46:09;;;;;;;3.70;2.20;;;;;;;2.22;68.42;97874.63;10465049;28;20052;-65
2022/01/08 21:51:11;;;;;;;3.70;2.33;;;;;;;2.22;68.52;97868.63;10467245;28;20499;-65
2022/01/08 21:56:13;;;;;;;3.90;2.35;;;;;;;2.15;68.42;97837.22;10473244;28;20055;-65
2022/01/08 22:01:14;;;;;;;3.60;2.00;;;;;;;2.20;68.30;97824.88;10472426;28;20064;-66
2022/01/08 22:06:16;;;;;;;3.20;2.05;;;;;;;2.15;68.44;97816.56;10454542;28;20075;-65
2022/01/08 22:11:18;;;;;;;3.40;2.30;;;;;;;2.12;68.59;97795.31;10471619;28;20060;-66
2022/01/08 22:16:20;;;;;;;3.92;2.42;;;;;;;2.14;68.60;97775.41;10471879;28;20262;-65
2022/01/08 22:21:22;;;;;;;3.17;2.05;;;;;;;2.20;68.21;97769.91;10472052;28;20171;-65
2022/01/08 22:26:24;;;;;;;3.30;2.17;;;;;;;2.30;68.27;97758.09;10470100;28;20056;-66
2022/01/08 22:31:26;;;;;;;4.07;2.60;;;;;;;2.39;68.18;97746.41;10471843;28;20055;-65
2022/01/08 22:36:27;;;;;;;4.60;2.72;;;;;;;2.31;68.04;97731.41;10453379;28;20048;-65
2022/01/08 22:41:29;;;;;;;4.60;3.30;;;;;;;2.37;68.09;97715.53;10471219;28;20634;-66
2022/01/08 22:46:32;;;;;;;5.78;4.20;;;;;;;2.28;68.54;97707.53;10453647;28;20087;-66
2022/01/08 22:51:34;;;;;;;5.53;2.95;;;;;;;2.26;68.46;97688.75;10471152;28;20137;-66
2022/01/08 22:56:36;;;;;;;2.88;2.05;;;;;;;2.40;68.56;97668.91;10452442;28;20052;-66
2022/01/08 23:01:37;;;;;;;3.15;2.10;;;;;;;2.44;68.56;97657.47;10468925;28;20060;-66
2022/01/08 23:06:40;;;;;;;4.22;2.72;;;;;;;2.47;68.52;97649.56;10469371;28;20052;-66
2022/01/08 23:11:42;;;;;;;4.65;3.20;;;;;;;2.47;68.58;97641.81;10470040;28;20231;-66
2022/01/08 23:16:44;;;;;;;3.35;2.00;;;;;;;2.48;68.63;97627.97;10470704;28;20053;-66
2022/01/08 23:21:46;;;;;;;3.75;2.40;;;;;;;2.37;69.06;97608.97;10469875;28;20206;-66
2022/01/08 23:26:47;;;;;;;4.60;3.30;;;;;;;2.47;68.60;97603.13;10468932;28;20048;-66
2022/01/08 23:31:49;;;;;;;4.63;3.30;;;;;;;2.56;68.33;97596.56;10469474;28;20059;-66
2022/01/08 23:36:51;;;;;;;4.78;3.28;;;;;;;2.55;68.38;97580.25;10468871;28;20562;-66
2022/01/08 23:41:52;;;;;;;3.25;1.98;;;;;;;2.61;68.22;97566.94;10468734;28;20050;-66
2022/01/08 23:46:56;;;;;;;3.70;2.60;;;;;;;2.49;68.35;97560.00;10468686;28;20052;-66
2022/01/08 23:52:00;;;;;;;6.90;4.68;;;;;;;2.37;68.90;97553.06;10469046;28;20088;-66
2022/01/08 23:57:02;;;;;;;6.47;3.35;;;;;;;2.22;69.06;97541.13;10469007;28;20052;-67
